createdAt,value
2022-08-11T00:01:17.666Z,104640.75
2022-08-11T00:03:47.648Z,104635.44
2022-08-11T00:06:17.167Z,104644.25
2022-08-11T00:08:49.755Z,104651.34
2022-08-11T00:11:18.156Z,104652.19
2022-08-11T00:13:46.724Z,104658.34
2022-08-11T00:16:17.595Z,104668.97
2022-08-11T00:18:47.838Z,104676.00
2022-08-11T00:21:15.657Z,104674.19
2022-08-11T00:23:46.506Z,104678.47
2022-08-11T00:26:17.730Z,104693.38
2022-08-11T00:28:44.632Z,104712.78
2022-08-11T00:31:23.280Z,104741.84
2022-08-11T00:33:51.604Z,104753.34
2022-08-11T00:36:24.929Z,104772.81
2022-08-11T00:38:54.486Z,104805.69
2022-08-11T00:41:42.513Z,104835.81
2022-08-11T00:44:36.570Z,104849.09
2022-08-11T00:47:09.808Z,104859.72
2022-08-11T00:49:47.430Z,104868.59
2022-08-11T00:52:20.443Z,104868.59
2022-08-11T00:55:05.645Z,104867.72
2022-08-11T00:57:51.537Z,104875.66
2022-08-11T01:00:23.560Z,104878.31
2022-08-11T01:03:09.193Z,104870.34
2022-08-11T01:06:07.778Z,104864.16
2022-08-11T01:08:37.908Z,104875.66
2022-08-11T01:11:40.291Z,104874.81
2022-08-11T01:14:33.694Z,104872.09
2022-08-11T01:17:23.077Z,104867.59
2022-08-11T01:20:46.967Z,104872.84
2022-08-11T01:23:19.706Z,104900.28
2022-08-11T01:25:56.890Z,104910.94
2022-08-11T01:28:55.499Z,104924.22
2022-08-11T01:31:57.298Z,104937.44
2022-08-11T01:34:27.239Z,104949.78
2022-08-11T01:37:08.918Z,104977.34
2022-08-11T01:40:15.638Z,105001.22
2022-08-11T01:43:33.761Z,105031.31
2022-08-11T01:46:26.643Z,105070.25
2022-08-11T01:50:07.031Z,105054.28
2022-08-11T01:52:34.972Z,105073.75
2022-08-11T01:55:37.713Z,105081.69
2022-08-11T01:58:20.024Z,105090.50
2022-08-11T02:01:32.107Z,105075.28
2022-08-11T02:04:33.968Z,105050.25
2022-08-11T02:07:31.056Z,105064.41
2022-08-11T02:10:57.871Z,105060.66
2022-08-11T02:14:03.367Z,105032.00
2022-08-11T02:16:50.107Z,105025.66
2022-08-11T02:19:35.135Z,105034.44
2022-08-11T02:22:27.526Z,105029.78
2022-08-11T02:25:09.663Z,105020.69
2022-08-11T02:27:43.383Z,105023.19
2022-08-11T02:30:16.736Z,105027.47
2022-08-11T02:33:23.906Z,105032.72
2022-08-11T02:35:50.641Z,105030.75
2022-08-11T02:38:19.233Z,105030.66
2022-08-11T02:40:56.821Z,105048.47
2022-08-11T02:43:55.961Z,105067.00
2022-08-11T02:47:02.943Z,105056.91
2022-08-11T02:50:06.173Z,105076.38
2022-08-11T02:53:00.931Z,105114.44
2022-08-11T02:55:56.709Z,105169.53
2022-08-11T02:58:39.578Z,105217.38
2022-08-11T03:01:22.198Z,105237.66
2022-08-11T03:04:08.883Z,105256.97
2022-08-11T03:07:01.469Z,105257.59
2022-08-11T03:09:37.299Z,105285.00
2022-08-11T03:12:31.754Z,105314.28
2022-08-11T03:15:26.241Z,105357.84
2022-08-11T03:17:56.183Z,105417.56
2022-08-11T03:20:41.736Z,105481.56
2022-08-11T03:23:20.068Z,105501.63
2022-08-11T03:26:10.074Z,105516.47
2022-08-11T03:28:45.687Z,105550.97
2022-08-11T03:31:27.972Z,105558.59
2022-08-11T03:34:06.779Z,105578.84
2022-08-11T03:36:57.606Z,105600.88
2022-08-11T03:40:04.329Z,105616.63
2022-08-11T03:42:46.472Z,105625.25
2022-08-11T03:45:32.110Z,105635.59
2022-08-11T03:48:21.087Z,105652.34
2022-08-11T03:51:15.096Z,105671.59
2022-08-11T03:53:55.428Z,105699.94
2022-08-11T03:56:32.699Z,105717.53
2022-08-11T03:59:28.690Z,105724.25
2022-08-11T04:02:16.970Z,105707.19
2022-08-11T04:04:51.491Z,105714.00
2022-08-11T04:07:37.358Z,105709.31
2022-08-11T04:10:25.961Z,105712.81
2022-08-11T04:12:58.574Z,105721.59
2022-08-11T04:16:12.070Z,105761.13
2022-08-11T04:19:13.553Z,105811.88
2022-08-11T04:22:34.889Z,105831.47
2022-08-11T04:25:20.262Z,105895.91
2022-08-11T04:28:29.140Z,105886.63
2022-08-11T04:31:05.696Z,105837.91
2022-08-11T04:33:44.523Z,105816.50
2022-08-11T04:37:26.509Z,105817.59
2022-08-11T04:40:20.708Z,105844.56
2022-08-11T04:43:21.025Z,105899.56
2022-08-11T04:46:21.769Z,105948.13
2022-08-11T04:49:25.959Z,105975.03
2022-08-11T04:52:49.202Z,105998.59
2022-08-11T04:55:53.425Z,106063.94
2022-08-11T04:59:17.446Z,106099.16
2022-08-11T05:02:06.762Z,106131.69
2022-08-11T05:05:21.848Z,106103.41
2022-08-11T05:08:06.894Z,106041.72
2022-08-11T05:10:52.042Z,105978.22
2022-08-11T05:13:52.340Z,105904.06
2022-08-11T05:16:43.130Z,105808.84
2022-08-11T05:19:35.341Z,105697.78
2022-08-11T05:22:22.664Z,105554.63
2022-08-11T05:26:43.729Z,105399.78
2022-08-11T05:28:30.375Z,105196.88
2022-08-11T05:31:31.369Z,105012.47
2022-08-11T05:34:21.892Z,104839.56
2022-08-11T05:37:25.215Z,104684.22
2022-08-11T05:40:14.818Z,104547.38
2022-08-11T05:43:09.402Z,104394.50
2022-08-11T05:46:03.096Z,104242.53
2022-08-11T05:48:52.813Z,104104.59
2022-08-11T05:51:39.227Z,103979.91
2022-08-11T05:54:38.777Z,103882.41
2022-08-11T05:57:06.474Z,103768.22
2022-08-11T05:59:34.283Z,103678.94
2022-08-11T06:02:04.495Z,103603.75
2022-08-11T06:04:32.309Z,103540.09
2022-08-11T06:07:03.974Z,103444.31
2022-08-11T06:09:36.532Z,103343.50
2022-08-11T06:12:26.224Z,103242.66
2022-08-11T06:14:57.981Z,103160.97
2022-08-11T06:17:38.347Z,103104.34
2022-08-11T06:20:09.703Z,103061.03
2022-08-11T06:22:37.078Z,103002.31
2022-08-11T06:25:07.116Z,102942.88
2022-08-11T06:27:37.546Z,102901.69
2022-08-11T06:30:15.960Z,102854.94
2022-08-11T06:32:51.450Z,102831.13
2022-08-11T06:35:46.098Z,102833.25
2022-08-11T06:38:21.748Z,102811.00
2022-08-11T06:41:15.440Z,102791.38
2022-08-11T06:44:05.052Z,102732.97
2022-08-11T06:46:39.038Z,102706.69
2022-08-11T06:49:31.415Z,102694.88
2022-08-11T06:52:35.351Z,102666.88
2022-08-11T06:55:56.011Z,102662.53
2022-08-11T06:58:16.822Z,102670.16
2022-08-11T07:00:47.239Z,102667.47
2022-08-11T07:03:19.597Z,102656.59
2022-08-11T07:05:55.878Z,102642.59
2022-08-11T07:09:19.146Z,102647.03
2022-08-11T07:12:10.855Z,102628.84
2022-08-11T07:15:00.726Z,102625.59
2022-08-11T07:17:29.250Z,102622.25
2022-08-11T07:20:19.809Z,102615.84
2022-08-11T07:23:13.722Z,102605.31
2022-08-11T07:26:02.030Z,102601.66
2022-08-11T07:28:49.075Z,102590.75
2022-08-11T07:31:30.977Z,102583.09
2022-08-11T07:34:36.000Z,102574.19
2022-08-11T07:37:15.326Z,102574.06
2022-08-11T07:39:44.421Z,102581.13
2022-08-11T07:42:15.112Z,102566.88
2022-08-11T07:45:01.835Z,102568.72
2022-08-11T07:47:48.226Z,102573.50
2022-08-11T07:50:34.438Z,102569.59
2022-08-11T07:53:02.947Z,102562.06
2022-08-11T07:55:51.356Z,102556.09
2022-08-11T07:58:45.007Z,102557.47
2022-08-11T08:01:44.330Z,102554.78
2022-08-11T08:04:33.520Z,102550.00
2022-08-11T08:07:22.062Z,102558.19
2022-08-11T08:10:08.335Z,102556.41
2022-08-11T08:12:54.076Z,102558.06
2022-08-11T08:15:41.142Z,102555.50
2022-08-11T08:18:26.104Z,102553.22
2022-08-11T08:20:56.838Z,102546.13
2022-08-11T08:23:34.050Z,102549.66
2022-08-11T08:26:04.706Z,102547.28
2022-08-11T08:28:33.708Z,102542.94
2022-08-11T08:31:00.750Z,102542.25
2022-08-11T08:33:30.403Z,102546.28
2022-08-11T08:36:15.550Z,102545.84
2022-08-11T08:38:47.908Z,102553.00
2022-08-11T08:41:19.742Z,102552.78
2022-08-11T08:43:51.503Z,102541.22
2022-08-11T08:46:23.601Z,102543.75
2022-08-11T08:48:53.399Z,102543.44
2022-08-11T08:51:58.772Z,102536.72
2022-08-11T08:54:27.842Z,102547.88
2022-08-11T08:56:56.748Z,102537.03
2022-08-11T08:59:26.766Z,102538.91
2022-08-11T09:02:14.131Z,102549.72
2022-08-11T09:04:44.535Z,102551.00
2022-08-11T09:07:15.392Z,102546.16
2022-08-11T09:09:48.235Z,102552.22
2022-08-11T09:12:16.952Z,102546.91
2022-08-11T09:15:05.968Z,102547.06
2022-08-11T09:17:37.167Z,102553.78
2022-08-11T09:20:24.906Z,102549.25
2022-08-11T09:26:21.562Z,102545.22
2022-08-11T09:28:50.146Z,102534.84
2022-08-11T09:31:17.348Z,102536.22
2022-08-11T09:33:44.835Z,102534.97
2022-08-11T09:36:31.929Z,102532.34
2022-08-11T09:39:19.413Z,102538.47
2022-08-11T09:42:01.399Z,102541.84
2022-08-11T09:44:50.252Z,102538.72
2022-08-11T09:47:20.857Z,102532.09
2022-08-11T09:49:49.353Z,102549.81
2022-08-11T09:52:18.476Z,102533.03
2022-08-11T09:54:49.877Z,102534.06
2022-08-11T09:57:40.082Z,102526.22
2022-08-11T10:00:13.347Z,102532.13
2022-08-11T10:02:44.303Z,102530.31
2022-08-11T10:05:33.229Z,102526.53
2022-08-11T10:08:01.432Z,102528.94
2022-08-11T10:10:29.941Z,102528.81
2022-08-11T10:13:04.311Z,102535.28
2022-08-11T10:15:35.472Z,102537.28
2022-08-11T10:18:29.952Z,102538.25
2022-08-11T10:21:02.684Z,102540.47
2022-08-11T10:24:00.841Z,102538.53
2022-08-11T10:27:06.062Z,102528.78
2022-08-11T10:29:58.089Z,102536.72
2022-08-11T10:32:58.639Z,102531.84
2022-08-11T10:35:32.563Z,102529.59
2022-08-11T10:38:08.144Z,102528.63
2022-08-11T10:40:40.955Z,102535.81
2022-08-11T10:44:02.786Z,102532.53
2022-08-11T10:46:29.967Z,102528.94
2022-08-11T10:48:59.200Z,102517.22
2022-08-11T10:51:50.886Z,102519.78
2022-08-11T10:54:40.171Z,102508.44
2022-08-11T10:57:25.979Z,102507.88
2022-08-11T10:59:56.484Z,102506.38
2022-08-11T11:02:24.345Z,102505.50
2022-08-11T11:05:02.821Z,102508.19
2022-08-11T11:07:44.124Z,102500.31
2022-08-11T11:10:11.568Z,102506.63
2022-08-11T11:13:12.070Z,102498.38
2022-08-11T11:16:01.473Z,102497.97
2022-08-11T11:18:35.833Z,102499.97
2022-08-11T11:21:18.585Z,102501.75
2022-08-11T11:24:16.835Z,102489.06
2022-08-11T11:27:01.092Z,102486.88
2022-08-11T11:29:53.059Z,102495.78
2022-08-11T11:32:35.262Z,102490.78
2022-08-11T11:35:26.757Z,102483.97
2022-08-11T11:38:04.886Z,102491.47
2022-08-11T11:40:33.159Z,102491.81
2022-08-11T11:43:01.165Z,102491.72
2022-08-11T11:45:28.660Z,102481.53
2022-08-11T11:47:58.382Z,102486.16
2022-08-11T11:50:32.898Z,102496.69
2022-08-11T11:53:03.727Z,102488.13
2022-08-11T11:55:31.038Z,102496.53
2022-08-11T11:58:19.084Z,102484.75
2022-08-11T12:01:05.890Z,102483.06
2022-08-11T12:03:35.488Z,102484.72
2022-08-11T12:06:03.767Z,102473.03
2022-08-11T12:08:31.626Z,102477.78
2022-08-11T12:11:22.875Z,102462.09
2022-08-11T12:13:52.063Z,102465.19
2022-08-11T12:16:32.872Z,102465.88
2022-08-11T12:19:05.685Z,102465.84
2022-08-11T12:21:35.250Z,102465.19
2022-08-11T12:24:21.559Z,102462.13
2022-08-11T12:27:15.152Z,102456.75
2022-08-11T12:29:41.221Z,102469.25
2022-08-11T12:32:11.329Z,102456.41
2022-08-11T12:34:38.319Z,102448.00
2022-08-11T12:37:13.039Z,102445.03
2022-08-11T12:40:16.729Z,102441.72
2022-08-11T12:43:21.065Z,102443.47
2022-08-11T12:45:54.105Z,102435.13
2022-08-11T12:48:58.981Z,102434.16
2022-08-11T12:52:06.743Z,102411.44
2022-08-11T12:54:48.024Z,102407.19
2022-08-11T12:57:37.871Z,102424.09
2022-08-11T13:00:25.263Z,102419.63
2022-08-11T13:03:12.169Z,102418.06
2022-08-11T13:05:44.416Z,102412.28
2022-08-11T13:08:16.669Z,102421.88
2022-08-11T13:11:04.097Z,102422.88
2022-08-11T13:13:53.587Z,102422.38
2022-08-11T13:16:20.710Z,102424.09
2022-08-11T13:18:48.731Z,102420.13
2022-08-11T13:21:20.326Z,102413.19
2022-08-11T13:24:01.264Z,102405.34
2022-08-11T13:26:47.353Z,102401.28
2022-08-11T13:29:19.759Z,102408.44
2022-08-11T13:31:47.308Z,102413.31
2022-08-11T13:34:16.704Z,102427.66
2022-08-11T13:36:44.748Z,102413.50
2022-08-11T13:39:13.408Z,102417.13
2022-08-11T13:41:44.098Z,102414.69
2022-08-11T13:44:17.482Z,102419.13
2022-08-11T13:46:48.156Z,102422.53
2022-08-11T13:49:21.434Z,102417.34
2022-08-11T13:51:48.583Z,102404.91
2022-08-11T13:54:26.049Z,102421.16
2022-08-11T13:56:56.164Z,102419.81
2022-08-11T13:59:30.931Z,102416.88
2022-08-11T14:02:21.850Z,102412.16
2022-08-11T14:05:00.211Z,102411.78
2022-08-11T14:07:42.001Z,102412.59
2022-08-11T14:10:13.337Z,102400.00
2022-08-11T14:13:01.555Z,102388.44
2022-08-11T14:15:34.614Z,102411.53
2022-08-11T14:18:06.776Z,102395.44
2022-08-11T14:20:55.991Z,102400.09
2022-08-11T14:23:28.547Z,102393.84
2022-08-11T14:26:15.109Z,102388.00
2022-08-11T14:28:45.127Z,102395.09
2022-08-11T14:31:15.060Z,102379.75
2022-08-11T14:34:00.751Z,102377.69
2022-08-11T14:36:35.553Z,102378.03
2022-08-11T14:39:07.124Z,102371.97
2022-08-11T14:42:09.963Z,102370.50
2022-08-11T14:45:04.932Z,102368.88
2022-08-11T14:47:35.916Z,102363.25
2022-08-11T14:50:11.464Z,102364.88
2022-08-11T14:52:43.960Z,102365.50
2022-08-11T14:55:30.581Z,102360.06
2022-08-11T14:57:58.401Z,102346.59
2022-08-11T15:00:25.928Z,102350.28
2022-08-11T15:03:13.517Z,102350.19
2022-08-11T15:06:02.149Z,102350.91
2022-08-11T15:08:53.353Z,102332.69
2022-08-11T15:11:44.263Z,102330.84
2022-08-11T15:14:12.794Z,102345.13
2022-08-11T15:17:03.065Z,102344.34
2022-08-11T15:19:40.159Z,102336.75
2022-08-11T15:22:28.233Z,102335.63
2022-08-11T15:24:57.588Z,102326.31
2022-08-11T15:27:44.513Z,102322.66
2022-08-11T15:30:33.165Z,102320.78
2022-08-11T15:33:27.954Z,102315.44
2022-08-11T15:36:15.392Z,102326.69
2022-08-11T15:38:49.198Z,102321.22
2022-08-11T15:41:54.591Z,102308.97
2022-08-11T15:45:02.723Z,102308.97
2022-08-11T15:47:44.539Z,102306.41
2022-08-11T15:50:19.957Z,102311.78
2022-08-11T15:52:58.039Z,102313.63
2022-08-11T15:55:26.175Z,102315.34
2022-08-11T15:58:13.503Z,102313.75
2022-08-11T16:01:08.726Z,102317.34
2022-08-11T16:04:09.484Z,102313.09
2022-08-11T16:06:49.563Z,102309.41
2022-08-11T16:09:48.209Z,102309.31
2022-08-11T16:12:35.523Z,102308.97
2022-08-11T16:15:25.534Z,102302.44
2022-08-11T16:17:56.529Z,102297.28
2022-08-11T16:20:26.660Z,102303.16
2022-08-11T16:23:01.987Z,102297.66
2022-08-11T16:27:06.118Z,102292.50
2022-08-11T16:28:21.953Z,102293.38
2022-08-11T16:30:49.943Z,102288.72
2022-08-11T16:33:48.410Z,102291.28
2022-08-11T16:36:24.814Z,102285.06
2022-08-11T16:38:53.783Z,102287.78
2022-08-11T16:41:44.279Z,102294.00
2022-08-11T16:44:32.726Z,102291.03
2022-08-11T16:47:06.528Z,102287.72
2022-08-11T16:49:37.222Z,102287.25
2022-08-11T16:52:08.083Z,102282.72
2022-08-11T16:54:35.746Z,102284.81
2022-08-11T16:57:27.586Z,102272.66
2022-08-11T16:59:58.047Z,102274.41
2022-08-11T17:02:48.805Z,102279.50
2022-08-11T17:05:54.208Z,102278.47
2022-08-11T17:08:57.026Z,102284.69
2022-08-11T17:11:49.750Z,102287.59
2022-08-11T17:14:35.276Z,102285.91
2022-08-11T17:17:07.290Z,102281.72
2022-08-11T17:20:40.730Z,102285.88
2022-08-11T17:22:42.130Z,102284.16
2022-08-11T17:25:11.503Z,102289.00
2022-08-11T17:27:39.796Z,102287.16
2022-08-11T17:30:08.673Z,102290.81
2022-08-11T17:33:00.852Z,102289.81
2022-08-11T17:35:41.131Z,102292.63
2022-08-11T17:38:15.500Z,102289.28
2022-08-11T17:41:05.628Z,102295.59
2022-08-11T17:43:51.902Z,102288.47
2022-08-11T17:46:38.326Z,102291.88
2022-08-11T17:49:07.845Z,102293.53
2022-08-11T17:51:56.003Z,102297.16
2022-08-11T17:54:42.844Z,102297.72
2022-08-11T17:57:30.275Z,102299.19
2022-08-11T17:59:58.959Z,102295.69
2022-08-11T18:02:55.600Z,102292.03
2022-08-11T18:05:28.257Z,102294.41
2022-08-11T18:08:16.038Z,102286.56
2022-08-11T18:11:03.429Z,102296.34
2022-08-11T18:13:51.469Z,102292.81
2022-08-11T18:16:37.147Z,102297.22
2022-08-11T18:19:24.534Z,102301.41
2022-08-11T18:22:15.457Z,102306.78
2022-08-11T18:25:12.449Z,102302.53
2022-08-11T18:28:03.279Z,102310.31
2022-08-11T18:31:03.564Z,102323.94
2022-08-11T18:34:09.520Z,102325.25
2022-08-11T18:37:01.055Z,102324.94
2022-08-11T18:39:56.345Z,102335.31
2022-08-11T18:42:43.589Z,102351.53
2022-08-11T18:45:38.470Z,102358.78
2022-08-11T18:48:37.272Z,102357.28
2022-08-11T18:51:31.466Z,102347.44
2022-08-11T18:54:27.304Z,102357.78
2022-08-11T18:57:16.832Z,102360.69
2022-08-11T19:00:05.669Z,102355.75
2022-08-11T19:02:55.615Z,102348.84
2022-08-11T19:06:31.815Z,102346.88
2022-08-11T19:08:53.626Z,102358.91
2022-08-11T19:11:42.865Z,102355.09
2022-08-11T19:14:31.453Z,102357.13
2022-08-11T19:17:44.338Z,102358.25
2022-08-11T19:20:31.968Z,102363.34
2022-08-11T19:23:18.327Z,102363.34
2022-08-11T19:26:06.227Z,102374.66
2022-08-11T19:28:54.550Z,102376.56
2022-08-11T19:31:44.424Z,102386.13
2022-08-11T19:34:34.423Z,102394.97
2022-08-11T19:37:24.368Z,102396.50
2022-08-11T19:40:13.572Z,102407.63
2022-08-11T19:43:01.950Z,102418.91
2022-08-11T19:45:52.530Z,102431.72
2022-08-11T19:48:44.586Z,102443.78
2022-08-11T19:51:31.534Z,102454.59
2022-08-11T19:54:18.412Z,102467.66
2022-08-11T19:57:04.530Z,102486.72
2022-08-11T19:59:51.974Z,102498.03
2022-08-11T20:02:38.625Z,102521.78
2022-08-11T20:05:25.352Z,102532.44
2022-08-11T20:08:14.642Z,102550.09
2022-08-11T20:11:01.068Z,102564.53
2022-08-11T20:13:47.870Z,102571.69
2022-08-11T20:16:38.290Z,102585.16
2022-08-11T20:19:26.225Z,102609.59
2022-08-11T20:22:34.496Z,102627.06
2022-08-11T20:25:21.870Z,102653.25
2022-08-11T20:28:08.928Z,102669.84
2022-08-11T20:30:55.860Z,102690.97
2022-08-11T20:33:42.828Z,102731.22
2022-08-11T20:36:29.285Z,102772.88
2022-08-11T20:39:15.185Z,102825.16
2022-08-11T20:42:01.588Z,102870.75
2022-08-11T20:44:48.991Z,102908.56
2022-08-11T20:47:59.602Z,102942.91
2022-08-11T20:50:45.607Z,102977.28
2022-08-11T20:53:35.965Z,102994.06
2022-08-11T20:56:28.795Z,103013.63
2022-08-11T20:59:21.936Z,103027.16
2022-08-11T21:02:10.321Z,103038.59
2022-08-11T21:05:00.230Z,103046.53
2022-08-11T21:07:57.283Z,103053.47
2022-08-11T21:10:51.536Z,103046.28
2022-08-11T21:13:41.375Z,103045.34
2022-08-11T21:16:30.900Z,103039.38
2022-08-11T21:20:00.061Z,103054.75
2022-08-11T21:22:42.416Z,103054.41
2022-08-11T21:25:47.981Z,103062.09
2022-08-11T21:28:36.536Z,103090.06
2022-08-11T21:31:23.230Z,103110.72
2022-08-11T21:34:09.664Z,103148.94
2022-08-11T21:36:55.645Z,103181.59
2022-08-11T21:39:42.593Z,103202.59
2022-08-11T21:42:29.467Z,103201.41
2022-08-11T21:45:16.895Z,103195.06
2022-08-11T21:48:03.689Z,103184.19
2022-08-11T21:50:48.979Z,103147.06
2022-08-11T21:53:34.951Z,103133.31
2022-08-11T21:56:22.207Z,103126.50
2022-08-11T21:59:15.052Z,103123.13
2022-08-11T22:02:01.992Z,103123.75
2022-08-11T22:04:50.011Z,103115.78
2022-08-11T22:07:39.362Z,103112.19
2022-08-11T22:10:35.985Z,103104.09
2022-08-11T22:13:31.860Z,103089.03
2022-08-11T22:16:20.935Z,103087.41
2022-08-11T22:19:09.514Z,103083.72
2022-08-11T22:22:02.721Z,103084.31
2022-08-11T22:24:52.255Z,103081.25
2022-08-11T22:27:39.586Z,103080.16
2022-08-11T22:30:30.005Z,103076.72
2022-08-11T22:33:18.667Z,103092.53
2022-08-11T22:36:12.467Z,103085.53
2022-08-11T22:38:59.833Z,103084.16
2022-08-11T22:41:45.664Z,103092.78
2022-08-11T22:44:31.286Z,103109.25
2022-08-11T22:47:19.224Z,103134.47
2022-08-11T22:50:07.735Z,103155.84
2022-08-11T22:52:55.547Z,103190.63
2022-08-11T22:55:42.906Z,103222.66
2022-08-11T22:58:29.249Z,103259.03
2022-08-11T23:01:16.214Z,103297.88
2022-08-11T23:04:03.561Z,103325.03
2022-08-11T23:06:50.026Z,103354.88
2022-08-11T23:09:36.478Z,103364.53
2022-08-11T23:12:22.846Z,103366.25
2022-08-11T23:15:10.557Z,103378.50
2022-08-11T23:17:56.999Z,103389.75
2022-08-11T23:20:45.157Z,103402.94
2022-08-11T23:23:46.924Z,103406.28
2022-08-11T23:26:33.963Z,103406.41
2022-08-11T23:29:19.741Z,103396.03
2022-08-11T23:32:07.790Z,103413.03
2022-08-11T23:35:04.390Z,103435.19
2022-08-11T23:38:05.778Z,103445.16
2022-08-11T23:40:51.251Z,103463.94
2022-08-11T23:43:40.588Z,103486.06
2022-08-11T23:46:26.032Z,103503.75
2022-08-11T23:49:18.003Z,103538.97
2022-08-11T23:52:04.477Z,103538.13
2022-08-11T23:54:51.731Z,103543.50
2022-08-11T23:57:37.130Z,103555.66
